createdAt,value
2019-02-05T00:01:35.664Z,66.23
2019-02-05T00:04:06.189Z,67.13
2019-02-05T00:06:36.104Z,66.98
2019-02-05T00:09:10.215Z,66.65
2019-02-05T00:11:39.706Z,66.94
2019-02-05T00:14:09.647Z,66.94
2019-02-05T00:16:39.624Z,66.78
2019-02-05T00:19:09.210Z,66.18
2019-02-05T00:21:38.684Z,65.66
2019-02-05T00:24:08.176Z,66.40
2019-02-05T00:26:37.624Z,66.06
2019-02-05T00:29:07.115Z,65.80
2019-02-05T00:31:36.965Z,66.93
2019-02-05T00:34:06.495Z,67.36
2019-02-05T00:36:35.965Z,66.71
2019-02-05T00:39:08.421Z,66.71
2019-02-05T00:41:37.992Z,65.76
2019-02-05T00:44:07.461Z,65.76
2019-02-05T00:46:36.956Z,65.71
2019-02-05T00:49:06.457Z,67.64
2019-02-05T00:51:36.066Z,67.01
2019-02-05T00:54:06.456Z,67.41
2019-02-05T00:56:35.912Z,67.32
2019-02-05T00:59:05.617Z,67.69
2019-02-05T01:01:35.359Z,68.32
2019-02-05T01:04:05.520Z,68.11
2019-02-05T01:06:35.001Z,67.39
2019-02-05T01:09:06.853Z,68.17
2019-02-05T01:11:36.390Z,69.06
2019-02-05T01:14:06.622Z,67.31
2019-02-05T01:16:36.181Z,68.53
2019-02-05T01:19:05.849Z,69.68
2019-02-05T01:21:35.324Z,69.12
2019-02-05T01:24:05.144Z,69.44
2019-02-05T01:26:34.615Z,68.75
2019-02-05T01:29:04.382Z,69.62
2019-02-05T01:31:33.967Z,69.11
2019-02-05T01:34:03.478Z,68.12
2019-02-05T01:36:33.069Z,67.32
2019-02-05T01:39:02.590Z,67.34
2019-02-05T01:41:32.434Z,67.44
2019-02-05T01:44:02.247Z,67.95
2019-02-05T01:46:31.711Z,66.86
2019-02-05T01:49:01.170Z,66.86
2019-02-05T01:51:30.718Z,67.21
2019-02-05T01:54:00.190Z,66.92
2019-02-05T01:56:40.203Z,68.01
2019-02-05T01:59:01.338Z,67.71
2019-02-05T02:01:30.990Z,67.71
2019-02-05T02:04:00.476Z,68.89
2019-02-05T02:06:29.951Z,69.28
2019-02-05T02:08:59.456Z,68.49
2019-02-05T02:11:29.222Z,67.54
2019-02-05T02:13:58.737Z,68.40
2019-02-05T02:16:28.201Z,68.80
2019-02-05T02:18:57.697Z,69.20
2019-02-05T02:21:27.187Z,68.93
2019-02-05T02:23:56.686Z,68.70
2019-02-05T02:26:26.426Z,68.98
2019-02-05T02:28:55.971Z,68.37
2019-02-05T02:31:25.474Z,68.37
2019-02-05T02:33:54.946Z,68.84
2019-02-05T02:36:24.453Z,68.65
2019-02-05T02:38:53.919Z,68.65
2019-02-05T02:41:23.609Z,68.24
2019-02-05T02:43:53.091Z,68.37
2019-02-05T02:46:22.705Z,68.37
2019-02-05T02:48:52.343Z,68.67
2019-02-05T02:51:21.818Z,68.67
2019-02-05T02:53:51.329Z,68.55
2019-02-05T02:56:20.909Z,68.55
2019-02-05T02:58:50.344Z,68.79
2019-02-05T03:01:19.827Z,70.56
2019-02-05T03:03:49.307Z,70.56
2019-02-05T03:06:18.793Z,70.34
2019-02-05T03:08:48.304Z,69.64
2019-02-05T03:11:18.072Z,71.28
2019-02-05T03:13:47.545Z,71.01
2019-02-05T03:16:17.050Z,71.12
2019-02-05T03:18:46.521Z,71.12
2019-02-05T03:21:16.016Z,70.65
2019-02-05T03:23:45.507Z,71.39
2019-02-05T03:26:15.054Z,71.39
2019-02-05T03:28:44.796Z,72.19
2019-02-05T03:31:14.313Z,73.22
2019-02-05T03:33:43.869Z,72.00
2019-02-05T03:36:13.530Z,72.41
2019-02-05T03:38:43.041Z,73.00
2019-02-05T03:41:12.520Z,73.00
2019-02-05T03:43:42.641Z,73.74
2019-02-05T03:46:14.318Z,73.84
2019-02-05T03:48:45.585Z,74.25
2019-02-05T03:51:28.455Z,74.25
2019-02-05T03:54:17.077Z,74.47
2019-02-05T03:57:15.832Z,74.17
2019-02-05T04:00:28.270Z,74.17
2019-02-05T04:03:24.396Z,74.88
2019-02-05T04:06:42.409Z,74.01
2019-02-05T04:09:39.145Z,72.95
2019-02-05T04:12:50.121Z,72.75
2019-02-05T04:15:46.081Z,72.26
2019-02-05T04:18:58.115Z,72.50
2019-02-05T04:22:18.496Z,73.16
2019-02-05T04:25:21.386Z,72.67
2019-02-05T04:28:27.856Z,73.31
2019-02-05T04:31:15.990Z,73.43
2019-02-05T04:34:04.514Z,72.44
2019-02-05T04:37:29.547Z,72.44
2019-02-05T04:40:54.635Z,73.41
2019-02-05T04:44:16.967Z,73.72
2019-02-05T04:47:10.170Z,74.27
2019-02-05T04:50:11.124Z,73.61
2019-02-05T04:53:19.185Z,73.25
2019-02-05T04:56:14.435Z,72.92
2019-02-05T04:59:37.049Z,72.81
2019-02-05T05:02:28.013Z,72.07
2019-02-05T05:05:14.260Z,72.07
2019-02-05T05:08:15.652Z,71.82
2019-02-05T05:10:45.140Z,71.54
2019-02-05T05:13:15.041Z,73.75
2019-02-05T05:15:44.498Z,72.62
2019-02-05T05:18:15.604Z,72.62
2019-02-05T05:20:46.032Z,72.24
2019-02-05T05:23:15.706Z,71.53
2019-02-05T05:25:57.167Z,71.53
2019-02-05T05:28:27.136Z,70.88
2019-02-05T05:30:57.325Z,72.28
2019-02-05T05:33:26.797Z,72.59
2019-02-05T05:35:56.536Z,71.46
2019-02-05T05:38:25.993Z,72.37
2019-02-05T05:40:55.452Z,71.54
2019-02-05T05:43:24.957Z,71.54
2019-02-05T05:45:54.930Z,71.26
2019-02-05T05:48:24.434Z,71.91
2019-02-05T05:50:53.928Z,71.25
2019-02-05T05:53:23.452Z,71.25
2019-02-05T05:55:53.116Z,70.89
2019-02-05T05:58:23.152Z,72.06
2019-02-05T06:00:52.990Z,71.61
2019-02-05T06:03:22.550Z,71.61
2019-02-05T06:05:52.059Z,71.26
2019-02-05T06:08:21.548Z,72.13
2019-02-05T06:10:51.079Z,70.99
2019-02-05T06:13:23.360Z,71.98
2019-02-05T06:15:52.858Z,71.37
2019-02-05T06:18:22.410Z,71.29
2019-02-05T06:20:51.969Z,70.85
2019-02-05T06:23:21.578Z,70.85
2019-02-05T06:25:51.159Z,71.69
2019-02-05T06:28:20.793Z,72.15
2019-02-05T06:30:50.297Z,71.08
2019-02-05T06:33:23.489Z,71.68
2019-02-05T06:35:51.035Z,70.77
2019-02-05T06:38:20.548Z,70.68
2019-02-05T06:40:50.044Z,71.38
2019-02-05T06:43:19.552Z,71.45
2019-02-05T06:45:49.116Z,71.31
2019-02-05T06:48:18.975Z,71.01
2019-02-05T06:50:48.498Z,70.63
2019-02-05T06:53:17.999Z,70.76
2019-02-05T06:55:47.580Z,70.48
2019-02-05T06:58:17.153Z,70.54
2019-02-05T07:00:46.675Z,70.41
2019-02-05T07:03:16.539Z,69.93
2019-02-05T07:05:46.045Z,69.80
2019-02-05T07:08:15.545Z,69.97
2019-02-05T07:10:45.051Z,69.53
2019-02-05T07:13:14.568Z,69.53
2019-02-05T07:15:44.073Z,69.23
2019-02-05T07:18:13.579Z,69.30
2019-02-05T07:20:43.059Z,69.30
2019-02-05T07:23:12.562Z,69.29
2019-02-05T07:25:42.036Z,68.83
2019-02-05T07:28:12.444Z,68.83
2019-02-05T07:30:41.941Z,68.47
2019-02-05T07:33:11.442Z,69.16
2019-02-05T07:35:41.132Z,68.82
2019-02-05T07:38:11.923Z,68.62
2019-02-05T07:40:41.544Z,69.40
2019-02-05T07:43:11.124Z,69.40
2019-02-05T07:45:40.651Z,68.32
2019-02-05T07:48:10.149Z,68.71
2019-02-05T07:50:39.688Z,68.35
2019-02-05T07:53:09.430Z,68.35
2019-02-05T07:55:38.906Z,68.73
2019-02-05T07:58:08.581Z,68.23
2019-02-05T08:00:38.166Z,68.67
2019-02-05T08:03:07.655Z,68.67
2019-02-05T08:05:37.228Z,68.28
2019-02-05T08:08:07.925Z,67.93
2019-02-05T08:10:37.386Z,69.23
2019-02-05T08:13:07.741Z,69.23
2019-02-05T08:15:38.540Z,69.46
2019-02-05T08:18:08.452Z,67.25
2019-02-05T08:20:37.995Z,67.85
2019-02-05T08:23:07.447Z,67.80
2019-02-05T08:25:37.044Z,67.80
2019-02-05T08:28:06.644Z,67.37
2019-02-05T08:30:39.000Z,67.08
2019-02-05T08:33:08.591Z,67.17
2019-02-05T08:35:38.131Z,67.75
2019-02-05T08:38:13.817Z,67.96
2019-02-05T08:40:43.805Z,67.61
2019-02-05T08:43:13.318Z,68.74
2019-02-05T08:45:42.786Z,68.74
2019-02-05T08:48:13.873Z,68.75
2019-02-05T08:50:43.447Z,68.58
2019-02-05T08:53:13.413Z,67.97
2019-02-05T08:55:43.067Z,68.81
2019-02-05T08:58:13.233Z,67.81
2019-02-05T09:00:42.977Z,67.81
2019-02-05T09:03:12.920Z,69.31
2019-02-05T09:05:42.631Z,69.31
2019-02-05T09:08:12.100Z,69.16
2019-02-05T09:10:42.131Z,69.30
2019-02-05T09:13:11.959Z,69.41
2019-02-05T09:15:41.670Z,69.41
2019-02-05T09:18:11.563Z,68.05
2019-02-05T09:20:41.048Z,68.08
2019-02-05T09:23:10.521Z,67.23
2019-02-05T09:25:40.008Z,66.78
2019-02-05T09:28:09.492Z,67.11
2019-02-05T09:30:39.011Z,66.57
2019-02-05T09:33:10.756Z,67.12
2019-02-05T09:35:40.503Z,67.15
2019-02-05T09:38:10.365Z,66.64
2019-02-05T09:40:40.264Z,67.32
2019-02-05T09:43:10.153Z,66.67
2019-02-05T09:45:40.591Z,65.02
2019-02-05T09:48:11.728Z,66.03
2019-02-05T09:50:44.804Z,65.06
2019-02-05T09:53:12.626Z,67.86
2019-02-05T09:55:42.270Z,66.39
2019-02-05T09:58:11.834Z,66.75
2019-02-05T10:00:41.881Z,63.99
2019-02-05T10:03:11.374Z,64.81
2019-02-05T10:05:40.875Z,64.12
2019-02-05T10:08:10.340Z,63.58
2019-02-05T10:10:39.824Z,63.77
2019-02-05T10:13:09.426Z,64.66
2019-02-05T10:15:40.750Z,63.64
2019-02-05T10:18:12.031Z,63.90
2019-02-05T10:20:41.831Z,64.53
2019-02-05T10:23:11.784Z,63.72
2019-02-05T10:25:41.368Z,65.82
2019-02-05T10:28:12.615Z,63.58
2019-02-05T10:30:44.459Z,63.65
2019-02-05T10:33:14.334Z,63.96
2019-02-05T10:35:44.815Z,63.35
2019-02-05T10:38:14.298Z,63.44
2019-02-05T10:40:43.733Z,63.26
2019-02-05T10:43:13.240Z,62.43
2019-02-05T10:45:42.870Z,63.34
2019-02-05T10:48:12.831Z,63.81
2019-02-05T10:50:42.289Z,64.08
2019-02-05T10:53:12.022Z,65.25
2019-02-05T10:55:41.756Z,64.16
2019-02-05T10:58:13.164Z,63.44
2019-02-05T11:00:43.383Z,62.24
2019-02-05T11:03:12.987Z,63.45
2019-02-05T11:05:42.508Z,63.04
2019-02-05T11:08:12.179Z,63.41
2019-02-05T11:10:41.737Z,63.21
2019-02-05T11:13:11.251Z,62.17
2019-02-05T11:15:40.828Z,61.44
2019-02-05T11:18:12.537Z,61.08
2019-02-05T11:20:41.936Z,60.52
2019-02-05T11:23:11.460Z,61.56
2019-02-05T11:25:41.051Z,61.06
2019-02-05T11:28:10.629Z,60.86
2019-02-05T11:30:42.759Z,61.16
2019-02-05T11:33:13.065Z,61.04
2019-02-05T11:35:43.031Z,61.16
2019-02-05T11:38:13.817Z,62.06
2019-02-05T11:40:43.433Z,60.33
2019-02-05T11:43:12.865Z,59.75
2019-02-05T11:45:42.259Z,60.53
2019-02-05T11:48:15.214Z,59.84
2019-02-05T11:50:44.739Z,59.54
2019-02-05T11:53:14.429Z,60.25
2019-02-05T11:55:43.869Z,61.05
2019-02-05T11:58:13.856Z,60.71
2019-02-05T12:01:14.569Z,60.65
2019-02-05T12:03:44.045Z,62.63
2019-02-05T12:06:13.427Z,60.45
2019-02-05T12:08:42.859Z,61.26
2019-02-05T12:11:12.368Z,61.28
2019-02-05T12:13:42.163Z,60.34
2019-02-05T12:16:11.580Z,60.99
2019-02-05T12:18:40.999Z,58.65
2019-02-05T12:21:10.423Z,58.81
2019-02-05T12:23:39.907Z,58.62
2019-02-05T12:26:09.560Z,58.53
2019-02-05T12:28:38.942Z,58.05
2019-02-05T12:31:09.003Z,58.28
2019-02-05T12:33:38.399Z,57.12
2019-02-05T12:36:07.854Z,56.25
2019-02-05T12:38:37.254Z,54.26
2019-02-05T12:41:06.656Z,53.29
2019-02-05T12:43:36.065Z,51.72
2019-02-05T12:46:05.719Z,50.66
2019-02-05T12:48:35.110Z,51.14
2019-02-05T12:51:05.301Z,48.57
2019-02-05T12:53:34.716Z,50.61
2019-02-05T12:56:05.276Z,50.61
2019-02-05T12:58:34.684Z,49.84
2019-02-05T13:01:04.634Z,48.46
2019-02-05T13:03:34.042Z,48.13
2019-02-05T13:06:04.133Z,48.13
2019-02-05T13:08:33.687Z,49.64
2019-02-05T13:11:03.172Z,50.26
2019-02-05T13:13:32.580Z,50.12
2019-02-05T13:16:02.389Z,50.13
2019-02-05T13:18:31.788Z,50.41
2019-02-05T13:21:01.218Z,52.22
2019-02-05T13:23:30.609Z,52.11
2019-02-05T13:26:00.137Z,52.75
2019-02-05T13:28:29.860Z,53.23
2019-02-05T13:31:07.715Z,53.71
2019-02-05T13:33:31.094Z,56.27
2019-02-05T13:36:00.556Z,53.86
2019-02-05T13:38:31.050Z,54.05
2019-02-05T13:41:01.258Z,53.78
2019-02-05T13:43:32.567Z,53.81
2019-02-05T13:46:02.560Z,50.05
2019-02-05T13:48:32.208Z,49.13
2019-02-05T13:51:01.657Z,50.30
2019-02-05T13:53:31.097Z,49.08
2019-02-05T13:56:00.771Z,49.08
2019-02-05T13:58:30.523Z,48.38
2019-02-05T14:01:00.387Z,47.36
2019-02-05T14:03:30.167Z,48.66
2019-02-05T14:05:59.715Z,48.66
2019-02-05T14:08:29.186Z,48.02
2019-02-05T14:10:58.610Z,48.02
2019-02-05T14:13:28.454Z,47.38
2019-02-05T14:15:57.997Z,45.76
2019-02-05T14:18:27.409Z,47.09
2019-02-05T14:20:56.923Z,45.06
2019-02-05T14:23:26.347Z,43.90
2019-02-05T14:25:55.857Z,41.46
2019-02-05T14:28:25.629Z,40.51
2019-02-05T14:30:57.021Z,41.04
2019-02-05T14:33:28.252Z,40.67
2019-02-05T14:35:57.755Z,40.36
2019-02-05T14:38:27.898Z,38.75
2019-02-05T14:40:57.404Z,39.39
2019-02-05T14:43:27.782Z,38.94
2019-02-05T14:45:57.289Z,42.00
2019-02-05T14:48:26.689Z,43.19
2019-02-05T14:50:56.103Z,45.51
2019-02-05T14:53:25.478Z,47.98
2019-02-05T14:55:54.913Z,49.74
2019-02-05T14:58:24.552Z,51.42
2019-02-05T15:00:53.941Z,51.42
2019-02-05T15:03:23.447Z,53.49
2019-02-05T15:05:52.830Z,55.00
2019-02-05T15:08:22.283Z,55.92
2019-02-05T15:10:51.793Z,55.95
2019-02-05T15:13:21.253Z,56.90
2019-02-05T15:15:50.678Z,56.81
2019-02-05T15:18:23.957Z,57.67
2019-02-05T15:20:54.024Z,58.83
2019-02-05T15:23:23.558Z,59.53
2019-02-05T15:25:53.450Z,60.52
2019-02-05T15:28:22.849Z,60.89
2019-02-05T15:30:52.277Z,62.30
2019-02-05T15:33:45.584Z,61.83
2019-02-05T15:36:35.631Z,62.38
2019-02-05T15:39:12.335Z,62.67
2019-02-05T15:41:42.127Z,63.94
2019-02-05T15:44:11.741Z,63.56
2019-02-05T15:46:41.267Z,64.94
2019-02-05T15:49:10.726Z,64.92
2019-02-05T15:51:40.126Z,65.44
2019-02-05T15:54:09.482Z,63.66
2019-02-05T15:56:39.093Z,66.01
2019-02-05T15:59:08.897Z,66.58
2019-02-05T16:01:38.307Z,65.56
2019-02-05T16:04:07.821Z,65.89
2019-02-05T16:06:37.618Z,65.86
2019-02-05T16:09:09.661Z,65.96
2019-02-05T16:11:39.262Z,66.31
2019-02-05T16:14:09.236Z,66.33
2019-02-05T16:16:38.828Z,66.03
2019-02-05T16:19:08.441Z,65.60
2019-02-05T16:21:38.091Z,66.68
2019-02-05T16:24:07.855Z,66.94
2019-02-05T16:26:37.331Z,66.82
2019-02-05T16:29:07.213Z,66.66
2019-02-05T16:31:36.969Z,66.50
2019-02-05T16:34:06.540Z,67.06
2019-02-05T16:36:36.220Z,67.18
2019-02-05T16:39:10.141Z,67.79
2019-02-05T16:41:39.715Z,67.82
2019-02-05T16:44:09.514Z,67.37
2019-02-05T16:46:39.216Z,68.83
2019-02-05T16:49:08.823Z,68.51
2019-02-05T16:51:38.294Z,68.64
2019-02-05T16:54:07.899Z,68.21
2019-02-05T16:56:37.759Z,68.58
2019-02-05T16:59:07.664Z,68.81
2019-02-05T17:01:37.352Z,68.04
2019-02-05T17:04:06.928Z,68.47
2019-02-05T17:06:36.551Z,69.18
2019-02-05T17:09:14.942Z,70.00
2019-02-05T17:11:44.442Z,69.66
2019-02-05T17:14:13.967Z,70.25
2019-02-05T17:16:43.690Z,71.44
2019-02-05T17:19:13.177Z,70.65
2019-02-05T17:21:42.683Z,71.10
2019-02-05T17:24:12.286Z,70.53
2019-02-05T17:26:42.030Z,70.94
2019-02-05T17:29:11.510Z,71.64
2019-02-05T17:31:40.970Z,71.80
2019-02-05T17:34:10.527Z,70.54
2019-02-05T17:36:40.294Z,71.27
2019-02-05T17:39:12.912Z,70.42
2019-02-05T17:41:42.503Z,70.86
2019-02-05T17:44:12.193Z,71.05
2019-02-05T17:46:41.685Z,70.33
2019-02-05T17:49:12.235Z,69.24
2019-02-05T17:51:41.983Z,70.50
2019-02-05T17:54:11.833Z,68.87
2019-02-05T17:56:41.420Z,70.49
2019-02-05T17:59:10.926Z,70.68
2019-02-05T18:01:40.651Z,68.13
2019-02-05T18:04:10.142Z,68.99
2019-02-05T18:06:39.671Z,69.08
2019-02-05T18:09:10.198Z,70.03
2019-02-05T18:11:40.339Z,68.81
2019-02-05T18:14:09.836Z,69.47
2019-02-05T18:16:39.745Z,70.03
2019-02-05T18:19:09.306Z,69.03
2019-02-05T18:21:38.964Z,68.83
2019-02-05T18:24:08.684Z,67.97
2019-02-05T18:26:38.284Z,67.96
2019-02-05T18:29:07.932Z,67.87
2019-02-05T18:31:37.477Z,68.16
2019-02-05T18:34:07.081Z,68.02
2019-02-05T18:36:36.676Z,68.14
2019-02-05T18:39:09.616Z,67.91
2019-02-05T18:41:39.348Z,68.79
2019-02-05T18:44:08.844Z,69.13
2019-02-05T18:46:38.471Z,69.85
2019-02-05T18:49:08.025Z,69.51
2019-02-05T18:51:38.332Z,69.06
2019-02-05T18:54:07.920Z,71.38
2019-02-05T18:56:37.396Z,71.38
2019-02-05T18:59:07.112Z,70.36
2019-02-05T19:01:36.832Z,70.48
2019-02-05T19:04:06.723Z,70.89
2019-02-05T19:06:36.508Z,71.75
2019-02-05T19:09:12.396Z,71.31
2019-02-05T19:11:42.054Z,71.67
2019-02-05T19:14:11.568Z,71.65
2019-02-05T19:16:41.098Z,71.25
2019-02-05T19:19:15.093Z,71.15
2019-02-05T19:21:41.803Z,72.16
2019-02-05T19:24:18.958Z,72.16
2019-02-05T19:26:51.460Z,71.72
2019-02-05T19:29:20.949Z,71.55
2019-02-05T19:31:50.797Z,71.39
2019-02-05T19:34:20.390Z,71.39
2019-02-05T19:36:51.461Z,71.59
2019-02-05T19:39:20.957Z,71.32
2019-02-05T19:41:50.426Z,71.15
2019-02-05T19:44:19.947Z,71.15
2019-02-05T19:47:01.958Z,71.62
2019-02-05T19:49:36.942Z,72.27
2019-02-05T19:52:07.059Z,71.63
2019-02-05T19:54:36.732Z,71.23
2019-02-05T19:57:06.230Z,71.23
2019-02-05T19:59:35.713Z,71.75
2019-02-05T20:02:05.904Z,71.92
2019-02-05T20:04:35.433Z,71.83
2019-02-05T20:07:05.182Z,71.83
2019-02-05T20:09:34.748Z,71.45
2019-02-05T20:12:04.249Z,71.51
2019-02-05T20:14:33.719Z,72.11
2019-02-05T20:17:03.709Z,72.37
2019-02-05T20:19:33.232Z,71.42
2019-02-05T20:22:02.711Z,71.66
2019-02-05T20:24:32.413Z,71.21
2019-02-05T20:27:01.881Z,71.54
2019-02-05T20:29:31.372Z,70.77
2019-02-05T20:32:00.854Z,70.30
2019-02-05T20:34:30.713Z,70.85
2019-02-05T20:37:00.177Z,71.13
2019-02-05T20:39:29.920Z,71.63
2019-02-05T20:41:59.486Z,71.13
2019-02-05T20:44:28.951Z,71.50
2019-02-05T20:47:00.692Z,70.52
2019-02-05T20:49:30.478Z,70.94
2019-02-05T20:51:59.984Z,72.88
2019-02-05T20:54:29.469Z,72.45
2019-02-05T20:56:59.144Z,72.16
2019-02-05T20:59:30.383Z,73.47
2019-02-05T21:02:00.026Z,73.65
2019-02-05T21:04:35.508Z,73.97
2019-02-05T21:07:04.712Z,73.97
2019-02-05T21:09:34.221Z,74.04
2019-02-05T21:12:03.695Z,74.61
2019-02-05T21:14:33.178Z,74.81
2019-02-05T21:17:02.642Z,75.08
2019-02-05T21:19:32.491Z,75.08
2019-02-05T21:22:02.088Z,75.04
2019-02-05T21:24:31.700Z,74.91
2019-02-05T21:27:01.317Z,75.24
2019-02-05T21:29:31.072Z,74.84
2019-02-05T21:32:00.601Z,74.19
2019-02-05T21:34:30.666Z,74.85
2019-02-05T21:37:00.247Z,74.73
2019-02-05T21:39:30.075Z,73.99
2019-02-05T21:42:00.283Z,74.86
2019-02-05T21:44:29.829Z,74.56
2019-02-05T21:46:59.325Z,74.56
2019-02-05T21:49:29.337Z,73.80
2019-02-05T21:51:58.882Z,75.26
2019-02-05T21:54:28.433Z,74.72
2019-02-05T21:56:57.887Z,74.72
2019-02-05T21:59:27.710Z,73.97
2019-02-05T22:01:57.345Z,74.76
2019-02-05T22:04:28.303Z,74.80
2019-02-05T22:06:58.132Z,74.85
2019-02-05T22:09:27.724Z,74.77
2019-02-05T22:11:57.319Z,74.08
2019-02-05T22:14:26.802Z,73.75
2019-02-05T22:16:56.302Z,74.31
2019-02-05T22:19:26.866Z,75.13
2019-02-05T22:21:56.461Z,75.45
2019-02-05T22:24:25.962Z,75.93
2019-02-05T22:26:55.680Z,75.48
2019-02-05T22:29:25.285Z,74.75
2019-02-05T22:31:54.771Z,75.04
2019-02-05T22:34:25.098Z,75.54
2019-02-05T22:36:54.718Z,74.54
2019-02-05T22:39:27.535Z,74.54
2019-02-05T22:41:57.222Z,74.46
2019-02-05T22:44:27.142Z,75.08
2019-02-05T22:46:57.046Z,74.49
2019-02-05T22:49:26.505Z,74.07
2019-02-05T22:51:56.439Z,74.98
2019-02-05T22:54:25.925Z,74.44
2019-02-05T22:56:55.443Z,74.95
2019-02-05T22:59:25.293Z,76.22
2019-02-05T23:02:00.044Z,74.73
2019-02-05T23:05:08.839Z,74.90
2019-02-05T23:07:38.348Z,74.90
2019-02-05T23:11:03.035Z,74.51
2019-02-05T23:13:26.924Z,74.57
2019-02-05T23:15:56.872Z,74.21
2019-02-05T23:18:26.489Z,73.85
2019-02-05T23:20:56.094Z,73.85
2019-02-05T23:23:25.721Z,74.82
2019-02-05T23:25:55.216Z,74.16
2019-02-05T23:28:24.708Z,73.44
2019-02-05T23:30:54.503Z,74.00
2019-02-05T23:33:24.276Z,74.05
2019-02-05T23:35:56.067Z,73.15
2019-02-05T23:38:29.357Z,72.45
2019-02-05T23:40:56.900Z,72.19
2019-02-05T23:43:27.762Z,72.63
2019-02-05T23:46:01.412Z,72.00
2019-02-05T23:48:28.606Z,73.11
2019-02-05T23:50:58.107Z,73.38
2019-02-05T23:53:27.728Z,72.94
2019-02-05T23:55:57.223Z,72.85
2019-02-05T23:58:28.548Z,72.33
